createdAt,value
2018-09-20T00:01:16.596Z,87.36
2018-09-20T00:03:45.511Z,87.82
2018-09-20T00:06:14.129Z,87.54
2018-09-20T00:08:42.929Z,87.87
2018-09-20T00:11:11.710Z,87.84
2018-09-20T00:13:40.453Z,87.72
2018-09-20T00:16:09.219Z,87.93
2018-09-20T00:18:39.172Z,87.73
2018-09-20T00:21:08.430Z,87.72
2018-09-20T00:23:37.356Z,87.66
2018-09-20T00:26:06.723Z,87.38
2018-09-20T00:28:35.445Z,87.34
2018-09-20T00:31:04.374Z,87.76
2018-09-20T00:33:33.892Z,87.83
2018-09-20T00:36:02.492Z,88.46
2018-09-20T00:38:31.321Z,88.36
2018-09-20T00:41:00.022Z,89.18
2018-09-20T00:43:28.964Z,88.70
2018-09-20T00:45:58.093Z,88.85
2018-09-20T00:48:27.100Z,88.37
2018-09-20T00:50:58.634Z,88.83
2018-09-20T00:53:27.529Z,88.31
2018-09-20T00:55:57.126Z,88.19
2018-09-20T00:58:26.827Z,88.34
2018-09-20T01:00:55.810Z,88.13
2018-09-20T01:03:24.707Z,88.33
2018-09-20T01:05:53.581Z,88.77
2018-09-20T01:08:22.632Z,88.84
2018-09-20T01:10:51.389Z,89.04
2018-09-20T01:13:21.350Z,89.19
2018-09-20T01:15:50.280Z,89.34
2018-09-20T01:18:18.911Z,89.32
2018-09-20T01:20:47.499Z,89.24
2018-09-20T01:23:16.167Z,89.07
2018-09-20T01:25:44.808Z,88.76
2018-09-20T01:28:13.762Z,89.07
2018-09-20T01:30:42.438Z,88.74
2018-09-20T01:33:11.287Z,88.60
2018-09-20T01:35:40.047Z,88.43
2018-09-20T01:38:08.869Z,88.31
2018-09-20T01:40:37.525Z,88.36
2018-09-20T01:43:06.511Z,88.14
2018-09-20T01:45:35.237Z,88.46
2018-09-20T01:48:04.051Z,88.37
2018-09-20T01:50:33.046Z,88.37
2018-09-20T01:53:01.869Z,88.70
2018-09-20T01:55:30.641Z,88.74
2018-09-20T01:57:59.348Z,88.74
2018-09-20T02:00:28.153Z,89.20
2018-09-20T02:02:56.909Z,89.33
2018-09-20T02:05:25.867Z,89.13
2018-09-20T02:07:54.658Z,89.39
2018-09-20T02:10:23.617Z,89.44
2018-09-20T02:12:52.430Z,89.88
2018-09-20T02:15:21.384Z,89.84
2018-09-20T02:17:50.344Z,89.76
2018-09-20T02:20:19.019Z,90.16
2018-09-20T02:22:47.728Z,90.57
2018-09-20T02:25:16.535Z,90.49
2018-09-20T02:27:45.375Z,90.20
2018-09-20T02:30:14.016Z,90.08
2018-09-20T02:32:42.792Z,89.97
2018-09-20T02:35:12.867Z,90.10
2018-09-20T02:37:41.553Z,89.89
2018-09-20T02:40:10.369Z,90.24
2018-09-20T02:42:39.143Z,90.24
2018-09-20T02:45:08.195Z,90.75
2018-09-20T02:47:37.071Z,90.66
2018-09-20T02:50:05.767Z,90.70
2018-09-20T02:52:34.498Z,90.49
2018-09-20T02:55:03.368Z,90.66
2018-09-20T02:57:32.159Z,90.55
2018-09-20T03:00:01.758Z,90.77
2018-09-20T03:02:30.755Z,90.48
2018-09-20T03:04:59.464Z,90.63
2018-09-20T03:07:28.606Z,90.39
2018-09-20T03:09:57.556Z,90.45
2018-09-20T03:12:26.191Z,90.80
2018-09-20T03:14:55.126Z,90.61
2018-09-20T03:17:23.916Z,90.30
2018-09-20T03:19:53.016Z,90.26
2018-09-20T03:22:22.101Z,90.12
2018-09-20T03:24:52.104Z,89.67
2018-09-20T03:27:21.192Z,90.11
2018-09-20T03:29:50.201Z,90.37
2018-09-20T03:32:18.998Z,90.41
2018-09-20T03:34:47.793Z,90.39
2018-09-20T03:37:16.675Z,90.16
2018-09-20T03:39:45.581Z,90.29
2018-09-20T03:42:14.538Z,90.04
2018-09-20T03:44:43.314Z,90.25
2018-09-20T03:47:12.027Z,90.14
2018-09-20T03:49:40.755Z,90.00
2018-09-20T03:52:09.654Z,90.42
2018-09-20T03:54:43.931Z,90.17
2018-09-20T03:57:12.605Z,90.67
2018-09-20T03:59:41.429Z,90.93
2018-09-20T04:02:10.428Z,90.91
2018-09-20T04:04:39.083Z,90.58
2018-09-20T04:07:08.069Z,90.58
2018-09-20T04:09:36.940Z,90.87
2018-09-20T04:12:05.553Z,91.00
2018-09-20T04:14:34.816Z,91.28
2018-09-20T04:17:03.741Z,91.22
2018-09-20T04:19:32.568Z,91.47
2018-09-20T04:22:01.292Z,91.68
2018-09-20T04:24:30.007Z,91.62
2018-09-20T04:26:58.774Z,91.53
2018-09-20T04:29:28.537Z,91.43
2018-09-20T04:31:57.492Z,91.55
2018-09-20T04:34:26.255Z,91.28
2018-09-20T04:36:55.109Z,91.29
2018-09-20T04:39:23.971Z,91.17
2018-09-20T04:41:53.109Z,91.36
2018-09-20T04:44:22.073Z,91.30
2018-09-20T04:46:50.817Z,91.09
2018-09-20T04:49:19.580Z,90.93
2018-09-20T04:51:48.550Z,91.04
2018-09-20T04:54:17.390Z,90.96
2018-09-20T04:56:46.023Z,91.15
2018-09-20T04:59:14.968Z,91.17
2018-09-20T05:01:43.988Z,91.02
2018-09-20T05:04:12.770Z,90.74
2018-09-20T05:06:41.616Z,90.75
2018-09-20T05:09:13.167Z,90.60
2018-09-20T05:11:42.746Z,90.12
2018-09-20T05:14:11.874Z,90.48
2018-09-20T05:16:41.205Z,90.19
2018-09-20T05:19:09.788Z,90.14
2018-09-20T05:21:38.795Z,90.11
2018-09-20T05:24:07.753Z,89.94
2018-09-20T05:26:36.514Z,89.80
2018-09-20T05:29:05.216Z,89.69
2018-09-20T05:31:34.294Z,89.67
2018-09-20T05:34:03.109Z,89.30
2018-09-20T05:36:31.962Z,89.34
2018-09-20T05:39:00.694Z,89.04
2018-09-20T05:41:29.847Z,88.94
2018-09-20T05:43:58.605Z,89.13
2018-09-20T05:46:27.610Z,88.95
2018-09-20T05:48:56.340Z,88.82
2018-09-20T05:51:25.038Z,88.90
2018-09-20T05:53:53.769Z,88.66
2018-09-20T05:56:23.189Z,88.18
2018-09-20T05:58:51.856Z,87.52
2018-09-20T06:01:20.743Z,87.26
2018-09-20T06:03:49.727Z,87.19
2018-09-20T06:06:18.637Z,87.38
2018-09-20T06:08:47.475Z,87.53
2018-09-20T06:11:16.417Z,87.06
2018-09-20T06:13:45.340Z,87.32
2018-09-20T06:16:14.995Z,87.16
2018-09-20T06:18:43.821Z,87.63
2018-09-20T06:21:12.924Z,87.04
2018-09-20T06:23:41.667Z,87.21
2018-09-20T06:26:10.443Z,86.84
2018-09-20T06:28:39.438Z,87.24
2018-09-20T06:31:08.137Z,87.10
2018-09-20T06:33:37.051Z,86.68
2018-09-20T06:36:06.030Z,86.89
2018-09-20T06:38:35.131Z,86.94
2018-09-20T06:41:04.191Z,86.72
2018-09-20T06:43:33.226Z,86.70
2018-09-20T06:46:02.111Z,86.77
2018-09-20T06:48:31.684Z,86.33
2018-09-20T06:51:00.392Z,86.58
2018-09-20T06:53:29.064Z,86.25
2018-09-20T06:55:57.736Z,86.26
2018-09-20T06:58:26.545Z,85.71
2018-09-20T07:00:55.373Z,86.25
2018-09-20T07:03:24.308Z,85.59
2018-09-20T07:05:52.949Z,85.88
2018-09-20T07:08:21.742Z,86.12
2018-09-20T07:10:50.513Z,85.59
2018-09-20T07:13:20.923Z,85.11
2018-09-20T07:15:51.102Z,85.71
2018-09-20T07:18:21.351Z,85.07
2018-09-20T07:20:50.103Z,85.08
2018-09-20T07:23:21.394Z,84.50
2018-09-20T07:25:50.350Z,84.32
2018-09-20T07:28:19.452Z,83.96
2018-09-20T07:30:48.316Z,84.16
2018-09-20T07:33:18.070Z,83.53
2018-09-20T07:35:46.701Z,84.00
2018-09-20T07:38:15.626Z,83.14
2018-09-20T07:40:44.650Z,82.53
2018-09-20T07:43:13.630Z,82.48
2018-09-20T07:45:42.504Z,81.93
2018-09-20T07:48:11.385Z,82.30
2018-09-20T07:50:40.192Z,81.71
2018-09-20T07:53:08.906Z,82.10
2018-09-20T07:55:38.021Z,81.48
2018-09-20T07:58:06.970Z,80.63
2018-09-20T08:00:36.003Z,80.48
2018-09-20T08:03:04.843Z,79.97
2018-09-20T08:05:33.991Z,80.56
2018-09-20T08:08:02.743Z,79.96
2018-09-20T08:10:31.635Z,79.00
2018-09-20T08:13:00.578Z,78.46
2018-09-20T08:15:29.519Z,76.76
2018-09-20T08:17:58.451Z,74.57
2018-09-20T08:20:27.107Z,73.13
2018-09-20T08:22:55.934Z,73.86
2018-09-20T08:25:24.926Z,73.09
2018-09-20T08:27:54.018Z,68.55
2018-09-20T08:30:22.736Z,67.90
2018-09-20T08:32:51.540Z,63.96
2018-09-20T08:35:20.234Z,63.21
2018-09-20T08:37:49.336Z,62.68
2018-09-20T08:40:18.446Z,59.59
2018-09-20T08:42:47.524Z,60.74
2018-09-20T08:45:17.340Z,61.50
2018-09-20T08:48:18.388Z,62.04
2018-09-20T08:50:47.120Z,64.65
2018-09-20T08:53:15.857Z,62.95
2018-09-20T08:55:44.592Z,62.96
2018-09-20T08:58:13.381Z,62.70
2018-09-20T09:00:42.552Z,62.12
2018-09-20T09:03:11.443Z,60.73
2018-09-20T09:05:40.235Z,61.26
2018-09-20T09:08:09.212Z,59.55
2018-09-20T09:10:38.106Z,59.91
2018-09-20T09:13:07.177Z,57.19
2018-09-20T09:15:35.930Z,55.29
2018-09-20T09:18:04.836Z,55.04
2018-09-20T09:20:33.437Z,57.53
2018-09-20T09:23:02.971Z,57.67
2018-09-20T09:25:31.802Z,57.78
2018-09-20T09:28:00.759Z,58.42
2018-09-20T09:30:29.663Z,55.61
2018-09-20T09:32:58.656Z,57.25
2018-09-20T09:35:27.826Z,57.53
2018-09-20T09:37:56.942Z,53.00
2018-09-20T09:40:25.841Z,51.83
2018-09-20T09:42:54.876Z,53.42
2018-09-20T09:45:23.680Z,51.61
2018-09-20T09:47:52.782Z,51.89
2018-09-20T09:50:21.815Z,50.60
2018-09-20T09:52:50.635Z,51.45
2018-09-20T09:55:20.258Z,50.50
2018-09-20T09:57:55.484Z,50.03
2018-09-20T10:00:29.551Z,47.63
2018-09-20T10:02:59.685Z,49.57
2018-09-20T10:05:28.496Z,48.16
2018-09-20T10:07:57.659Z,48.85
2018-09-20T10:10:26.319Z,50.62
2018-09-20T10:12:55.214Z,51.68
2018-09-20T10:15:24.098Z,50.33
2018-09-20T10:17:53.168Z,49.67
2018-09-20T10:20:21.928Z,49.56
2018-09-20T10:22:50.678Z,49.31
2018-09-20T10:25:19.444Z,49.40
2018-09-20T10:27:48.423Z,46.83
2018-09-20T10:30:17.440Z,47.44
2018-09-20T10:32:46.230Z,47.50
2018-09-20T10:35:15.585Z,48.08
2018-09-20T10:37:44.290Z,47.17
2018-09-20T10:40:13.101Z,47.03
2018-09-20T10:42:41.975Z,46.74
2018-09-20T10:45:11.785Z,45.55
2018-09-20T10:47:40.557Z,45.66
2018-09-20T10:50:09.248Z,45.82
2018-09-20T10:52:37.937Z,45.79
2018-09-20T10:55:06.661Z,46.10
2018-09-20T10:57:36.085Z,45.66
2018-09-20T11:00:06.173Z,45.46
2018-09-20T11:02:35.104Z,45.06
2018-09-20T11:05:03.890Z,44.40
2018-09-20T11:07:32.927Z,45.08
2018-09-20T11:10:01.745Z,45.14
2018-09-20T11:12:30.558Z,44.75
2018-09-20T11:14:59.406Z,44.99
2018-09-20T11:17:28.293Z,45.17
2018-09-20T11:19:57.297Z,45.08
2018-09-20T11:22:25.982Z,45.09
2018-09-20T11:24:55.054Z,43.78
2018-09-20T11:27:23.853Z,43.88
2018-09-20T11:29:52.717Z,44.15
2018-09-20T11:32:21.530Z,41.46
2018-09-20T11:34:50.358Z,40.43
2018-09-20T11:37:19.288Z,40.61
2018-09-20T11:39:48.878Z,40.37
2018-09-20T11:42:17.762Z,38.87
2018-09-20T11:44:46.643Z,38.38
2018-09-20T11:47:16.020Z,37.43
2018-09-20T11:49:44.954Z,36.67
2018-09-20T11:52:14.085Z,37.80
2018-09-20T11:54:42.783Z,37.77
2018-09-20T11:57:12.417Z,38.49
2018-09-20T11:59:42.125Z,38.87
2018-09-20T12:02:11.534Z,39.73
2018-09-20T12:04:40.937Z,40.26
2018-09-20T12:07:11.420Z,39.68
2018-09-20T12:09:41.034Z,38.14
2018-09-20T12:12:09.973Z,37.53
2018-09-20T12:14:39.386Z,36.75
2018-09-20T12:17:08.245Z,36.69
2018-09-20T12:19:37.551Z,35.96
2018-09-20T12:22:08.039Z,35.11
2018-09-20T12:24:37.098Z,35.49
2018-09-20T12:27:05.981Z,35.19
2018-09-20T12:29:35.157Z,34.93
2018-09-20T12:32:04.396Z,35.23
2018-09-20T12:34:33.218Z,36.81
2018-09-20T12:37:04.652Z,36.67
2018-09-20T12:39:33.749Z,37.03
2018-09-20T12:42:02.592Z,37.65
2018-09-20T12:44:31.376Z,38.30
2018-09-20T12:47:00.359Z,38.86
2018-09-20T12:49:29.699Z,38.62
2018-09-20T12:51:58.971Z,38.54
2018-09-20T12:54:29.823Z,39.58
2018-09-20T12:56:58.680Z,38.56
2018-09-20T12:59:27.338Z,38.25
2018-09-20T13:01:56.211Z,39.17
2018-09-20T13:04:25.859Z,38.80
2018-09-20T13:06:55.007Z,36.99
2018-09-20T13:09:23.817Z,37.85
2018-09-20T13:11:53.112Z,40.10
2018-09-20T13:14:21.900Z,40.18
2018-09-20T13:16:50.991Z,38.69
2018-09-20T13:19:19.815Z,39.57
2018-09-20T13:21:48.818Z,38.85
2018-09-20T13:24:17.516Z,38.89
2018-09-20T13:26:46.218Z,38.48
2018-09-20T13:29:15.250Z,38.92
2018-09-20T13:31:44.104Z,38.37
2018-09-20T13:34:13.007Z,38.60
2018-09-20T13:36:41.886Z,38.03
2018-09-20T13:39:12.138Z,37.86
2018-09-20T13:41:41.048Z,37.56
2018-09-20T13:44:09.933Z,38.03
2018-09-20T13:46:39.037Z,36.45
2018-09-20T13:49:07.947Z,36.04
2018-09-20T13:51:37.024Z,36.63
2018-09-20T13:54:07.057Z,35.32
2018-09-20T13:56:36.055Z,36.13
2018-09-20T13:59:04.955Z,35.40
2018-09-20T14:01:33.590Z,34.03
2018-09-20T14:04:02.612Z,31.55
2018-09-20T14:06:32.227Z,31.56
2018-09-20T14:09:01.145Z,34.08
2018-09-20T14:11:30.137Z,32.81
2018-09-20T14:13:59.662Z,35.13
2018-09-20T14:16:28.755Z,36.92
2018-09-20T14:18:57.767Z,37.29
2018-09-20T14:21:26.639Z,37.87
2018-09-20T14:23:56.608Z,38.95
2018-09-20T14:26:25.894Z,37.74
2018-09-20T14:28:54.827Z,34.43
2018-09-20T14:31:24.079Z,33.43
2018-09-20T14:33:53.108Z,32.19
2018-09-20T14:36:21.865Z,36.14
2018-09-20T14:38:50.790Z,37.10
2018-09-20T14:41:19.777Z,38.16
2018-09-20T14:43:48.986Z,38.73
2018-09-20T14:46:18.814Z,39.71
2018-09-20T14:48:47.702Z,40.10
2018-09-20T14:51:16.598Z,40.39
2018-09-20T14:53:45.646Z,40.26
2018-09-20T14:56:14.460Z,40.44
2018-09-20T14:58:43.358Z,41.19
2018-09-20T15:01:12.163Z,41.58
2018-09-20T15:03:41.082Z,42.37
2018-09-20T15:06:09.988Z,45.64
2018-09-20T15:08:38.735Z,50.75
2018-09-20T15:11:07.754Z,50.28
2018-09-20T15:13:36.601Z,52.39
2018-09-20T15:16:05.399Z,52.34
2018-09-20T15:18:34.389Z,52.54
2018-09-20T15:21:03.227Z,51.81
2018-09-20T15:23:32.279Z,51.71
2018-09-20T15:26:01.331Z,52.68
2018-09-20T15:28:30.056Z,53.09
2018-09-20T15:30:58.807Z,54.86
2018-09-20T15:33:27.626Z,56.89
2018-09-20T15:35:56.710Z,59.12
2018-09-20T15:38:25.514Z,61.32
2018-09-20T15:40:54.980Z,70.38
2018-09-20T15:43:23.774Z,72.70
2018-09-20T15:45:52.611Z,73.33
2018-09-20T15:48:21.338Z,74.61
2018-09-20T15:50:50.077Z,76.00
2018-09-20T15:53:19.582Z,74.58
2018-09-20T15:55:48.544Z,75.67
2018-09-20T15:58:17.297Z,75.72
2018-09-20T16:00:46.285Z,73.24
2018-09-20T16:03:15.371Z,73.54
2018-09-20T16:05:44.304Z,72.35
2018-09-20T16:08:13.064Z,73.03
2018-09-20T16:10:41.847Z,71.94
2018-09-20T16:13:10.614Z,72.21
2018-09-20T16:15:39.324Z,73.09
2018-09-20T16:18:08.239Z,71.90
2018-09-20T16:20:36.974Z,71.40
2018-09-20T16:23:05.687Z,71.85
2018-09-20T16:25:34.463Z,70.79
2018-09-20T16:28:10.488Z,68.98
2018-09-20T16:31:54.730Z,67.06
2018-09-20T16:36:40.056Z,67.42
2018-09-20T16:39:15.028Z,67.70
2018-09-20T16:41:46.159Z,68.37
2018-09-20T16:44:14.809Z,68.17
2018-09-20T16:46:43.729Z,67.71
2018-09-20T16:49:12.575Z,67.89
2018-09-20T16:51:41.334Z,67.50
2018-09-20T16:54:10.121Z,66.93
2018-09-20T16:56:39.096Z,66.93
2018-09-20T16:59:08.010Z,67.28
2018-09-20T17:01:36.850Z,69.02
2018-09-20T17:04:05.590Z,68.00
2018-09-20T17:06:34.645Z,68.03
2018-09-20T17:09:04.353Z,68.35
2018-09-20T17:11:33.024Z,68.74
2018-09-20T17:14:02.741Z,69.26
2018-09-20T17:16:31.525Z,69.43
2018-09-20T17:19:00.527Z,69.83
2018-09-20T17:21:29.269Z,69.90
2018-09-20T17:24:04.741Z,70.66
2018-09-20T17:26:33.677Z,70.93
2018-09-20T17:29:02.697Z,70.91
2018-09-20T17:31:31.392Z,71.40
2018-09-20T17:34:00.186Z,71.65
2018-09-20T17:36:29.667Z,71.54
2018-09-20T17:38:59.512Z,71.26
2018-09-20T17:41:31.442Z,69.92
2018-09-20T17:44:06.120Z,67.50
2018-09-20T17:46:34.954Z,68.32
2018-09-20T17:49:04.226Z,67.39
2018-09-20T17:51:33.703Z,68.42
2018-09-20T17:54:04.114Z,68.46
2018-09-20T17:56:33.556Z,68.40
2018-09-20T17:59:03.303Z,69.15
2018-09-20T18:01:32.060Z,68.57
2018-09-20T18:04:01.165Z,68.59
2018-09-20T18:06:31.634Z,67.31
2018-09-20T18:09:01.122Z,66.71
2018-09-20T18:11:29.955Z,67.37
2018-09-20T18:13:59.434Z,67.00
2018-09-20T18:16:28.285Z,67.16
2018-09-20T18:18:57.081Z,67.29
2018-09-20T18:21:25.836Z,68.27
2018-09-20T18:23:54.736Z,68.90
2018-09-20T18:26:23.711Z,71.57
2018-09-20T18:28:52.401Z,68.97
2018-09-20T18:31:21.311Z,68.53
2018-09-20T18:33:50.012Z,69.48
2018-09-20T18:36:18.769Z,69.59
2018-09-20T18:38:47.955Z,70.34
2018-09-20T18:41:16.730Z,71.20
2018-09-20T18:43:45.514Z,71.23
2018-09-20T18:46:14.546Z,70.94
2018-09-20T18:48:43.462Z,70.95
2018-09-20T18:51:12.418Z,70.75
2018-09-20T18:53:41.448Z,71.12
2018-09-20T18:56:10.101Z,71.32
2018-09-20T18:58:39.188Z,70.89
2018-09-20T19:01:08.209Z,70.52
2018-09-20T19:03:37.199Z,69.85
2018-09-20T19:06:06.447Z,70.12
2018-09-20T19:08:35.508Z,70.23
2018-09-20T19:11:04.754Z,70.05
2018-09-20T19:13:33.553Z,69.68
2018-09-20T19:16:02.784Z,69.63
2018-09-20T19:18:31.549Z,69.79
2018-09-20T19:21:00.462Z,69.78
2018-09-20T19:23:29.088Z,69.85
2018-09-20T19:25:57.967Z,69.53
2018-09-20T19:28:26.641Z,69.96
2018-09-20T19:30:55.474Z,69.75
2018-09-20T19:33:24.180Z,69.87
2018-09-20T19:35:53.047Z,68.46
2018-09-20T19:38:22.043Z,68.40
2018-09-20T19:40:50.667Z,67.29
2018-09-20T19:43:19.481Z,65.32
2018-09-20T19:45:48.243Z,65.71
2018-09-20T19:48:17.164Z,63.94
2018-09-20T19:50:46.213Z,64.20
2018-09-20T19:53:15.161Z,64.45
2018-09-20T19:55:44.121Z,64.25
2018-09-20T19:58:13.076Z,64.38
2018-09-20T20:00:41.781Z,64.52
2018-09-20T20:03:10.602Z,64.35
2018-09-20T20:05:39.607Z,64.27
2018-09-20T20:08:08.225Z,63.88
2018-09-20T20:10:37.048Z,63.37
2018-09-20T20:13:05.966Z,64.00
2018-09-20T20:15:34.744Z,63.73
2018-09-20T20:18:03.991Z,62.58
2018-09-20T20:20:33.072Z,62.15
2018-09-20T20:23:02.311Z,62.60
2018-09-20T20:25:31.438Z,63.25
2018-09-20T20:28:00.957Z,63.60
2018-09-20T20:30:30.305Z,63.54
2018-09-20T20:32:59.394Z,63.77
2018-09-20T20:35:28.034Z,63.88
2018-09-20T20:37:56.988Z,64.16
2018-09-20T20:40:26.085Z,64.52
2018-09-20T20:42:55.038Z,64.80
2018-09-20T20:45:23.741Z,65.25
2018-09-20T20:47:52.829Z,64.82
2018-09-20T20:50:21.736Z,64.70
2018-09-20T20:52:50.715Z,65.35
2018-09-20T20:55:19.744Z,64.70
2018-09-20T20:57:48.672Z,63.69
2018-09-20T21:00:17.617Z,64.24
2018-09-20T21:02:46.373Z,62.80
2018-09-20T21:05:15.168Z,63.14
2018-09-20T21:07:43.834Z,62.96
2018-09-20T21:10:12.561Z,62.86
2018-09-20T21:12:41.477Z,63.15
2018-09-20T21:15:10.550Z,63.12
2018-09-20T21:17:39.510Z,62.51
2018-09-20T21:20:08.321Z,62.57
2018-09-20T21:22:37.067Z,62.17
2018-09-20T21:25:06.446Z,62.47
2018-09-20T21:27:35.578Z,62.91
2018-09-20T21:30:05.180Z,62.77
2018-09-20T21:32:33.815Z,62.93
2018-09-20T21:35:02.774Z,62.49
2018-09-20T21:37:31.643Z,62.11
2018-09-20T21:40:00.787Z,62.63
2018-09-20T21:42:29.552Z,62.32
2018-09-20T21:44:58.726Z,62.58
2018-09-20T21:47:27.515Z,61.80
2018-09-20T21:49:56.319Z,62.11
2018-09-20T21:52:25.324Z,62.06
2018-09-20T21:54:54.194Z,61.70
2018-09-20T21:57:23.220Z,61.34
2018-09-20T21:59:52.241Z,61.60
2018-09-20T22:02:26.037Z,61.31
2018-09-20T22:04:54.769Z,60.92
2018-09-20T22:07:23.558Z,61.52
2018-09-20T22:09:52.505Z,61.27
2018-09-20T22:12:21.313Z,60.84
2018-09-20T22:14:50.133Z,61.32
2018-09-20T22:17:19.025Z,60.96
2018-09-20T22:19:47.922Z,61.05
2018-09-20T22:22:16.772Z,60.50
2018-09-20T22:24:45.531Z,60.31
2018-09-20T22:27:14.242Z,60.66
2018-09-20T22:29:43.157Z,59.73
2018-09-20T22:32:11.934Z,59.80
2018-09-20T22:34:40.828Z,59.49
2018-09-20T22:37:09.543Z,58.65
2018-09-20T22:39:38.329Z,58.96
2018-09-20T22:42:07.081Z,59.56
2018-09-20T22:44:35.728Z,58.90
2018-09-20T22:47:04.532Z,59.45
2018-09-20T22:49:34.043Z,59.28
2018-09-20T22:52:02.803Z,58.33
2018-09-20T22:54:31.507Z,59.01
2018-09-20T22:57:00.332Z,58.76
2018-09-20T22:59:29.122Z,59.13
2018-09-20T23:01:57.814Z,58.07
2018-09-20T23:04:26.621Z,58.61
2018-09-20T23:06:55.388Z,58.18
2018-09-20T23:09:24.019Z,58.04
2018-09-20T23:11:52.724Z,57.59
2018-09-20T23:14:21.425Z,57.68
2018-09-20T23:16:50.161Z,57.84
2018-09-20T23:19:19.071Z,58.11
2018-09-20T23:21:47.789Z,57.89
2018-09-20T23:24:16.610Z,58.86
2018-09-20T23:26:45.493Z,58.23
2018-09-20T23:29:14.323Z,58.44
2018-09-20T23:31:43.272Z,58.94
2018-09-20T23:34:11.905Z,57.89
2018-09-20T23:36:40.858Z,58.51
2018-09-20T23:39:11.922Z,58.54
2018-09-20T23:41:40.650Z,58.25
2018-09-20T23:44:09.897Z,58.35
2018-09-20T23:46:39.394Z,58.59
2018-09-20T23:49:08.362Z,58.20
2018-09-20T23:51:37.399Z,58.29
2018-09-20T23:54:06.416Z,58.83
2018-09-20T23:56:35.186Z,57.51
2018-09-20T23:59:03.875Z,58.15
